Weather Data

Pearl Creek Farm: 8878 N Farm Road 75, Walnut Grove MO 65770

<== Previous Day (Tuesday 03 Mar 2009) | Next Day (Thursday 05 Mar 2009) ==>

Summary Precipitation Data For Wednesday 04 March 2009

ElementValueUnits
Precipitation0"
Notes(none)
SourceSpringfield-Branson National Airport (SGF)

Summary Temperature Data For Wednesday 04 March 2009

ElementValueUnits
High Temperature63 oF
Low Temperature29 oF
Average Temperature46 oF
High Humidity80 %
Low Humidity41 %
Average Humidity56 %
SourceSpringfield-Branson National Airport (SGF)

Detail Temperature Data For Wednesday 04 March 2009

Date / TimeTemp (F)RH (%)Dew Pt (F)Report Date / TimeSource
2009-03-04 00:52:00 30 54 15.0 2017-12-29 19:14:24.89625 Springfield-Branson National Airport (SGF)
2009-03-04 01:52:00 29 58 16.0 2017-12-29 19:14:24.89625 Springfield-Branson National Airport (SGF)
2009-03-04 02:52:00 29 61 17.0 2017-12-29 19:14:24.89625 Springfield-Branson National Airport (SGF)
2009-03-04 03:52:00 29 61 17.0 2017-12-29 19:14:24.89625 Springfield-Branson National Airport (SGF)
2009-03-04 04:52:00 29 61 17.0 2017-12-29 19:14:24.89625 Springfield-Branson National Airport (SGF)
2009-03-04 05:52:00 29 61 17.0 2017-12-29 19:14:24.89625 Springfield-Branson National Airport (SGF)
2009-03-04 06:52:00 30 61 18.0 2017-12-29 19:14:24.89625 Springfield-Branson National Airport (SGF)
2009-03-04 07:52:00 33 54 18.0 2017-12-29 19:14:24.89625 Springfield-Branson National Airport (SGF)
2009-03-04 08:52:00 38 48 20.0 2017-12-29 19:14:24.89625 Springfield-Branson National Airport (SGF)
2009-03-04 09:52:00 45 44 24.0 2017-12-29 19:14:24.89625 Springfield-Branson National Airport (SGF)
2009-03-04 10:52:00 51 44 30.0 2017-12-29 19:14:24.89625 Springfield-Branson National Airport (SGF)
2009-03-04 11:52:00 54 45 33.0 2017-12-29 19:14:24.89625 Springfield-Branson National Airport (SGF)
2009-03-04 12:52:00 58 41 34.0 2017-12-29 19:14:24.89625 Springfield-Branson National Airport (SGF)
2009-03-04 13:52:00 61 41 37.0 2017-12-29 19:14:24.89625 Springfield-Branson National Airport (SGF)
2009-03-04 14:52:00 63 41 39.0 2017-12-29 19:14:24.89625 Springfield-Branson National Airport (SGF)
2009-03-04 15:52:00 63 45 41.0 2017-12-29 19:14:24.89625 Springfield-Branson National Airport (SGF)
2009-03-04 16:52:00 63 50 44.0 2017-12-29 19:14:24.89625 Springfield-Branson National Airport (SGF)
2009-03-04 17:52:00 59 58 44.0 2017-12-29 19:14:24.89625 Springfield-Branson National Airport (SGF)
2009-03-04 18:52:00 57 62 44.0 2017-12-29 19:14:24.89625 Springfield-Branson National Airport (SGF)
2009-03-04 19:52:00 55 64 43.0 2017-12-29 19:14:24.89625 Springfield-Branson National Airport (SGF)
2009-03-04 20:52:00 54 69 44.0 2017-12-29 19:14:24.89625 Springfield-Branson National Airport (SGF)
2009-03-04 21:52:00 52 75 44.0 2017-12-29 19:14:24.89625 Springfield-Branson National Airport (SGF)
2009-03-04 22:52:00 51 77 44.0 2017-12-29 19:14:24.89625 Springfield-Branson National Airport (SGF)
2009-03-04 23:52:00 50 80 44.0 2017-12-29 19:14:24.89625 Springfield-Branson National Airport (SGF)

A total of 24 rows are displayed.